ADDS METAR Data INFO
IDs: Format: Raw Decoded Include TAF

Data at: 0029 UTC 23 Oct 2017

METAR for:KTMB (Miami/Kendall-Tamian, FL, US)
Text:KTMB 230023Z 11013KT 10SM SCT025 BKN030 27/23 A3006 RMK AO2 T02720233
Temperature: 27.2°C ( 81°F)
Dewpoint: 23.3°C ( 74°F) [RH = 79%]
Pressure (altimeter):30.06 inches Hg (1018.0 mb)
Winds:from the ESE (110 degrees) at 15 MPH (13 knots; 6.7 m/s)
Visibility:10 or more sm (16+ km)
Ceiling:3000 feet AGL
Clouds: scattered clouds at 2500 feet AGL, broken clouds at 3000 feet AGL